sensor_id;sensor_type;location;lat;lon;timestamp;P1;durP1;ratioP1;P2;durP2;ratioP2
1829;SDS011;914;48.118;11.600;2022-10-04T00:01:31;6.83;;;4.97;;
1829;SDS011;914;48.118;11.600;2022-10-04T00:07:07;10.83;;;5.57;;
1829;SDS011;914;48.118;11.600;2022-10-04T00:09:43;7.90;;;5.20;;
1829;SDS011;914;48.118;11.600;2022-10-04T00:12:17;10.20;;;5.17;;
1829;SDS011;914;48.118;11.600;2022-10-04T00:15:04;5.07;;;4.40;;
1829;SDS011;914;48.118;11.600;2022-10-04T00:18:20;8.27;;;5.40;;
1829;SDS011;914;48.118;11.600;2022-10-04T00:20:56;7.57;;;4.60;;
1829;SDS011;914;48.118;11.600;2022-10-04T00:23:39;9.93;;;6.40;;
1829;SDS011;914;48.118;11.600;2022-10-04T00:26:10;8.77;;;5.77;;
1829;SDS011;914;48.118;11.600;2022-10-04T00:28:44;11.87;;;6.20;;
1829;SDS011;914;48.118;11.600;2022-10-04T00:31:14;7.53;;;5.60;;
1829;SDS011;914;48.118;11.600;2022-10-04T00:33:43;7.87;;;5.13;;
1829;SDS011;914;48.118;11.600;2022-10-04T00:47:11;7.17;;;5.30;;
1829;SDS011;914;48.118;11.600;2022-10-04T00:49:44;9.00;;;6.93;;
1829;SDS011;914;48.118;11.600;2022-10-04T00:52:19;6.87;;;4.90;;
1829;SDS011;914;48.118;11.600;2022-10-04T00:54:50;6.43;;;4.40;;
1829;SDS011;914;48.118;11.600;2022-10-04T00:57:28;6.53;;;4.50;;
1829;SDS011;914;48.118;11.600;2022-10-04T01:00:07;7.20;;;4.73;;
1829;SDS011;914;48.118;11.600;2022-10-04T01:05:12;6.67;;;4.20;;
1829;SDS011;914;48.118;11.600;2022-10-04T01:07:46;5.27;;;4.27;;
1829;SDS011;914;48.118;11.600;2022-10-04T01:10:25;4.93;;;4.40;;
1829;SDS011;914;48.118;11.600;2022-10-04T01:12:57;4.60;;;3.90;;
1829;SDS011;914;48.118;11.600;2022-10-04T01:20:51;4.10;;;3.70;;
1829;SDS011;914;48.118;11.600;2022-10-04T01:23:39;5.83;;;4.20;;
1829;SDS011;914;48.118;11.600;2022-10-04T01:26:51;8.07;;;4.40;;
1829;SDS011;914;48.118;11.600;2022-10-04T01:31:43;6.17;;;4.13;;
1829;SDS011;914;48.118;11.600;2022-10-04T01:34:12;5.30;;;4.27;;
1829;SDS011;914;48.118;11.600;2022-10-04T01:36:42;6.50;;;4.10;;
1829;SDS011;914;48.118;11.600;2022-10-04T01:39:11;5.33;;;4.00;;
1829;SDS011;914;48.118;11.600;2022-10-04T01:41:40;7.30;;;4.30;;
1829;SDS011;914;48.118;11.600;2022-10-04T01:44:18;5.70;;;4.20;;
1829;SDS011;914;48.118;11.600;2022-10-04T01:47:02;3.97;;;3.57;;
1829;SDS011;914;48.118;11.600;2022-10-04T01:49:37;6.07;;;4.00;;
1829;SDS011;914;48.118;11.600;2022-10-04T01:52:07;5.73;;;3.70;;
1829;SDS011;914;48.118;11.600;2022-10-04T01:54:43;4.10;;;3.70;;
1829;SDS011;914;48.118;11.600;2022-10-04T01:57:16;5.23;;;3.47;;
1829;SDS011;914;48.118;11.600;2022-10-04T02:02:25;4.97;;;4.03;;
1829;SDS011;914;48.118;11.600;2022-10-04T02:04:59;5.93;;;3.30;;
1829;SDS011;914;48.118;11.600;2022-10-04T02:07:28;4.17;;;3.77;;
1829;SDS011;914;48.118;11.600;2022-10-04T02:09:57;6.10;;;3.53;;
1829;SDS011;914;48.118;11.600;2022-10-04T02:12:28;4.37;;;3.97;;
1829;SDS011;914;48.118;11.600;2022-10-04T02:14:55;5.80;;;3.80;;
1829;SDS011;914;48.118;11.600;2022-10-04T02:17:30;4.07;;;3.67;;
1829;SDS011;914;48.118;11.600;2022-10-04T02:19:58;5.57;;;3.70;;
1829;SDS011;914;48.118;11.600;2022-10-04T02:22:25;4.87;;;3.90;;
1829;SDS011;914;48.118;11.600;2022-10-04T02:24:52;4.93;;;3.73;;
1829;SDS011;914;48.118;11.600;2022-10-04T02:27:20;4.57;;;3.10;;
1829;SDS011;914;48.118;11.600;2022-10-04T02:29:51;5.77;;;3.53;;
1829;SDS011;914;48.118;11.600;2022-10-04T02:32:16;7.33;;;3.60;;
1829;SDS011;914;48.118;11.600;2022-10-04T02:35:01;4.17;;;3.50;;
1829;SDS011;914;48.118;11.600;2022-10-04T02:37:28;3.60;;;3.23;;
1829;SDS011;914;48.118;11.600;2022-10-04T02:39:55;5.83;;;3.70;;
1829;SDS011;914;48.118;11.600;2022-10-04T02:42:56;3.80;;;3.37;;
1829;SDS011;914;48.118;11.600;2022-10-04T02:45:39;3.93;;;3.60;;
1829;SDS011;914;48.118;11.600;2022-10-04T02:51:13;5.53;;;3.70;;
1829;SDS011;914;48.118;11.600;2022-10-04T02:53:56;5.10;;;3.20;;
1829;SDS011;914;48.118;11.600;2022-10-04T02:56:27;4.87;;;3.53;;
1829;SDS011;914;48.118;11.600;2022-10-04T02:58:53;3.30;;;3.00;;
1829;SDS011;914;48.118;11.600;2022-10-04T03:01:23;6.43;;;3.33;;
1829;SDS011;914;48.118;11.600;2022-10-04T03:04:02;4.63;;;3.10;;
1829;SDS011;914;48.118;11.600;2022-10-04T03:06:29;3.80;;;3.10;;
1829;SDS011;914;48.118;11.600;2022-10-04T03:09:00;4.70;;;3.30;;
1829;SDS011;914;48.118;11.600;2022-10-04T03:11:32;5.13;;;3.33;;
1829;SDS011;914;48.118;11.600;2022-10-04T03:14:05;4.27;;;3.37;;
1829;SDS011;914;48.118;11.600;2022-10-04T03:16:38;3.87;;;3.47;;
1829;SDS011;914;48.118;11.600;2022-10-04T03:19:06;3.63;;;3.13;;
1829;SDS011;914;48.118;11.600;2022-10-04T03:21:33;3.40;;;3.10;;
1829;SDS011;914;48.118;11.600;2022-10-04T03:24:01;4.40;;;3.20;;
1829;SDS011;914;48.118;11.600;2022-10-04T03:29:13;3.37;;;3.07;;
1829;SDS011;914;48.118;11.600;2022-10-04T03:31:41;3.20;;;2.90;;
1829;SDS011;914;48.118;11.600;2022-10-04T03:34:22;6.47;;;3.77;;
1829;SDS011;914;48.118;11.600;2022-10-04T03:36:58;3.23;;;2.90;;
1829;SDS011;914;48.118;11.600;2022-10-04T03:39:27;5.50;;;3.33;;
1829;SDS011;914;48.118;11.600;2022-10-04T03:42:06;3.37;;;3.07;;
1829;SDS011;914;48.118;11.600;2022-10-04T03:44:37;3.57;;;3.27;;
1829;SDS011;914;48.118;11.600;2022-10-04T03:47:06;4.37;;;3.60;;
1829;SDS011;914;48.118;11.600;2022-10-04T03:49:35;4.30;;;3.17;;
1829;SDS011;914;48.118;11.600;2022-10-04T03:52:02;5.53;;;3.33;;
1829;SDS011;914;48.118;11.600;2022-10-04T03:54:28;3.13;;;2.80;;
1829;SDS011;914;48.118;11.600;2022-10-04T03:56:55;4.37;;;3.00;;
1829;SDS011;914;48.118;11.600;2022-10-04T03:59:23;3.57;;;3.10;;
1829;SDS011;914;48.118;11.600;2022-10-04T04:02:04;3.03;;;2.77;;
1829;SDS011;914;48.118;11.600;2022-10-04T04:04:46;3.40;;;2.73;;
1829;SDS011;914;48.118;11.600;2022-10-04T04:14:59;3.50;;;3.07;;
1829;SDS011;914;48.118;11.600;2022-10-04T04:19:56;4.40;;;3.13;;
1829;SDS011;914;48.118;11.600;2022-10-04T04:22:24;3.77;;;2.87;;
1829;SDS011;914;48.118;11.600;2022-10-04T04:24:56;3.17;;;2.87;;
1829;SDS011;914;48.118;11.600;2022-10-04T04:27:24;3.33;;;3.03;;
1829;SDS011;914;48.118;11.600;2022-10-04T04:29:51;4.03;;;3.43;;
1829;SDS011;914;48.118;11.600;2022-10-04T04:32:21;4.20;;;2.80;;
1829;SDS011;914;48.118;11.600;2022-10-04T04:34:50;3.20;;;2.90;;
1829;SDS011;914;48.118;11.600;2022-10-04T04:37:33;3.07;;;2.87;;
1829;SDS011;914;48.118;11.600;2022-10-04T04:40:10;3.30;;;2.90;;
1829;SDS011;914;48.118;11.600;2022-10-04T04:42:48;3.83;;;2.97;;
1829;SDS011;914;48.118;11.600;2022-10-04T04:45:19;5.40;;;3.30;;
1829;SDS011;914;48.118;11.600;2022-10-04T04:47:50;3.73;;;3.10;;
1829;SDS011;914;48.118;11.600;2022-10-04T04:50:24;3.40;;;3.10;;
1829;SDS011;914;48.118;11.600;2022-10-04T04:55:48;3.97;;;3.47;;
1829;SDS011;914;48.118;11.600;2022-10-04T04:58:20;3.20;;;2.90;;
1829;SDS011;914;48.118;11.600;2022-10-04T05:03:22;3.60;;;3.30;;
1829;SDS011;914;48.118;11.600;2022-10-04T05:05:48;4.33;;;3.70;;
1829;SDS011;914;48.118;11.600;2022-10-04T05:08:18;4.10;;;3.50;;
1829;SDS011;914;48.118;11.600;2022-10-04T05:13:37;4.30;;;3.90;;
1829;SDS011;914;48.118;11.600;2022-10-04T05:16:21;5.80;;;3.30;;
1829;SDS011;914;48.118;11.600;2022-10-04T05:18:58;3.67;;;3.13;;
1829;SDS011;914;48.118;11.600;2022-10-04T05:21:27;3.53;;;3.23;;
1829;SDS011;914;48.118;11.600;2022-10-04T05:23:55;3.37;;;3.07;;
1829;SDS011;914;48.118;11.600;2022-10-04T05:26:26;5.07;;;3.40;;
1829;SDS011;914;48.118;11.600;2022-10-04T05:28:54;5.63;;;3.57;;
1829;SDS011;914;48.118;11.600;2022-10-04T05:31:59;4.07;;;3.40;;
1829;SDS011;914;48.118;11.600;2022-10-04T05:34:39;4.27;;;3.33;;
1829;SDS011;914;48.118;11.600;2022-10-04T05:47:38;4.63;;;3.87;;
1829;SDS011;914;48.118;11.600;2022-10-04T05:50:12;4.67;;;3.90;;
1829;SDS011;914;48.118;11.600;2022-10-04T05:52:41;3.70;;;3.40;;
1829;SDS011;914;48.118;11.600;2022-10-04T05:57:46;3.60;;;3.17;;
1829;SDS011;914;48.118;11.600;2022-10-04T06:00:48;5.50;;;3.67;;
1829;SDS011;914;48.118;11.600;2022-10-04T06:03:29;6.13;;;3.80;;
1829;SDS011;914;48.118;11.600;2022-10-04T06:06:04;3.80;;;3.50;;
1829;SDS011;914;48.118;11.600;2022-10-04T06:08:42;8.27;;;3.67;;
1829;SDS011;914;48.118;11.600;2022-10-04T06:16:57;4.93;;;3.80;;
1829;SDS011;914;48.118;11.600;2022-10-04T06:22:20;6.07;;;3.63;;
1829;SDS011;914;48.118;11.600;2022-10-04T06:27:33;5.33;;;3.63;;
1829;SDS011;914;48.118;11.600;2022-10-04T06:30:08;4.73;;;3.53;;
1829;SDS011;914;48.118;11.600;2022-10-04T06:41:14;3.90;;;3.20;;
1829;SDS011;914;48.118;11.600;2022-10-04T06:44:10;3.73;;;3.40;;
1829;SDS011;914;48.118;11.600;2022-10-04T06:46:50;5.10;;;3.40;;
1829;SDS011;914;48.118;11.600;2022-10-04T06:52:34;4.93;;;3.83;;
1829;SDS011;914;48.118;11.600;2022-10-04T07:04:00;6.83;;;3.93;;
1829;SDS011;914;48.118;11.600;2022-10-04T07:12:51;4.50;;;3.70;;
1829;SDS011;914;48.118;11.600;2022-10-04T07:15:31;4.37;;;3.20;;
1829;SDS011;914;48.118;11.600;2022-10-04T07:18:07;9.27;;;3.93;;
1829;SDS011;914;48.118;11.600;2022-10-04T07:20:36;4.63;;;3.43;;
1829;SDS011;914;48.118;11.600;2022-10-04T07:23:07;3.50;;;3.20;;
1829;SDS011;914;48.118;11.600;2022-10-04T07:25:44;5.43;;;3.30;;
1829;SDS011;914;48.118;11.600;2022-10-04T07:28:26;6.30;;;3.50;;
1829;SDS011;914;48.118;11.600;2022-10-04T07:34:36;6.47;;;3.77;;
1829;SDS011;914;48.118;11.600;2022-10-04T07:36:47;4.30;;;3.50;;
1829;SDS011;914;48.118;11.600;2022-10-04T07:42:13;4.63;;;3.50;;
1829;SDS011;914;48.118;11.600;2022-10-04T07:44:53;4.83;;;3.47;;
1829;SDS011;914;48.118;11.600;2022-10-04T07:47:35;5.93;;;3.80;;
1829;SDS011;914;48.118;11.600;2022-10-04T07:50:12;5.63;;;3.63;;
1829;SDS011;914;48.118;11.600;2022-10-04T07:53:28;7.67;;;3.73;;
1829;SDS011;914;48.118;11.600;2022-10-04T07:58:32;5.57;;;3.73;;
1829;SDS011;914;48.118;11.600;2022-10-04T08:01:24;9.20;;;4.20;;
1829;SDS011;914;48.118;11.600;2022-10-04T08:04:04;5.33;;;3.57;;
1829;SDS011;914;48.118;11.600;2022-10-04T08:09:27;6.33;;;4.53;;
1829;SDS011;914;48.118;11.600;2022-10-04T08:13:03;7.93;;;4.30;;
1829;SDS011;914;48.118;11.600;2022-10-04T08:15:08;5.40;;;3.67;;
1829;SDS011;914;48.118;11.600;2022-10-04T08:20:54;3.93;;;3.53;;
1829;SDS011;914;48.118;11.600;2022-10-04T08:37:47;6.33;;;3.93;;
1829;SDS011;914;48.118;11.600;2022-10-04T08:46:28;4.83;;;3.67;;
1829;SDS011;914;48.118;11.600;2022-10-04T08:49:34;4.03;;;3.37;;
1829;SDS011;914;48.118;11.600;2022-10-04T08:52:20;6.53;;;3.40;;
1829;SDS011;914;48.118;11.600;2022-10-04T09:21:03;6.07;;;2.57;;
1829;SDS011;914;48.118;11.600;2022-10-04T09:32:01;2.83;;;2.37;;
1829;SDS011;914;48.118;11.600;2022-10-04T09:46:13;4.80;;;2.43;;
1829;SDS011;914;48.118;11.600;2022-10-04T09:54:56;3.60;;;2.43;;
1829;SDS011;914;48.118;11.600;2022-10-04T09:57:50;4.63;;;2.23;;
1829;SDS011;914;48.118;11.600;2022-10-04T10:04:01;3.93;;;2.27;;
1829;SDS011;914;48.118;11.600;2022-10-04T10:15:14;5.07;;;2.30;;
1829;SDS011;914;48.118;11.600;2022-10-04T10:17:56;4.37;;;2.10;;
1829;SDS011;914;48.118;11.600;2022-10-04T10:23:36;2.43;;;1.90;;
1829;SDS011;914;48.118;11.600;2022-10-04T10:31:49;3.63;;;2.10;;
1829;SDS011;914;48.118;11.600;2022-10-04T11:11:13;2.27;;;1.70;;
1829;SDS011;914;48.118;11.600;2022-10-04T11:17:13;3.27;;;1.70;;
1829;SDS011;914;48.118;11.600;2022-10-04T11:31:21;4.13;;;1.67;;
1829;SDS011;914;48.118;11.600;2022-10-04T11:38:46;4.00;;;1.97;;
1829;SDS011;914;48.118;11.600;2022-10-04T11:41:39;2.03;;;1.67;;
1829;SDS011;914;48.118;11.600;2022-10-04T11:50:02;2.30;;;1.80;;
1829;SDS011;914;48.118;11.600;2022-10-04T11:55:20;1.70;;;1.60;;
1829;SDS011;914;48.118;11.600;2022-10-04T11:57:58;3.17;;;1.70;;
1829;SDS011;914;48.118;11.600;2022-10-04T12:00:45;5.70;;;1.73;;
1829;SDS011;914;48.118;11.600;2022-10-04T12:03:34;3.95;;;1.90;;
1829;SDS011;914;48.118;11.600;2022-10-04T12:09:04;2.03;;;1.73;;
1829;SDS011;914;48.118;11.600;2022-10-04T12:31:26;1.88;;;1.77;;
1829;SDS011;914;48.118;11.600;2022-10-04T12:36:35;3.83;;;1.88;;
1829;SDS011;914;48.118;11.600;2022-10-04T12:44:44;2.30;;;1.60;;
1829;SDS011;914;48.118;11.600;2022-10-04T12:50:35;4.25;;;1.85;;
1829;SDS011;914;48.118;11.600;2022-10-04T12:58:22;5.95;;;1.67;;
1829;SDS011;914;48.118;11.600;2022-10-04T13:02:17;4.38;;;2.10;;
1829;SDS011;914;48.118;11.600;2022-10-04T13:04:33;3.85;;;1.88;;
1829;SDS011;914;48.118;11.600;2022-10-04T13:10:14;6.35;;;2.50;;
1829;SDS011;914;48.118;11.600;2022-10-04T13:13:18;4.90;;;2.60;;
1829;SDS011;914;48.118;11.600;2022-10-04T13:27:17;2.53;;;1.70;;
1829;SDS011;914;48.118;11.600;2022-10-04T13:29:54;3.13;;;1.80;;
1829;SDS011;914;48.118;11.600;2022-10-04T13:32:43;3.33;;;2.00;;
1829;SDS011;914;48.118;11.600;2022-10-04T13:35:33;2.17;;;1.73;;
1829;SDS011;914;48.118;11.600;2022-10-04T13:48:56;2.85;;;1.80;;
1829;SDS011;914;48.118;11.600;2022-10-04T13:51:48;4.70;;;2.40;;
1829;SDS011;914;48.118;11.600;2022-10-04T13:58:06;2.07;;;1.80;;
1829;SDS011;914;48.118;11.600;2022-10-04T14:06:34;4.40;;;2.13;;
1829;SDS011;914;48.118;11.600;2022-10-04T14:09:09;6.57;;;2.00;;
1829;SDS011;914;48.118;11.600;2022-10-04T14:16:43;3.55;;;2.60;;
1829;SDS011;914;48.118;11.600;2022-10-04T14:30:59;3.00;;;1.80;;
1829;SDS011;914;48.118;11.600;2022-10-04T14:36:42;3.90;;;1.63;;
1829;SDS011;914;48.118;11.600;2022-10-04T14:50:58;2.97;;;1.60;;
1829;SDS011;914;48.118;11.600;2022-10-04T15:07:36;2.57;;;1.50;;
1829;SDS011;914;48.118;11.600;2022-10-04T15:10:23;4.00;;;2.07;;
1829;SDS011;914;48.118;11.600;2022-10-04T15:13:00;4.73;;;1.70;;
1829;SDS011;914;48.118;11.600;2022-10-04T15:15:40;7.10;;;4.40;;
1829;SDS011;914;48.118;11.600;2022-10-04T15:23:56;4.13;;;1.73;;
1829;SDS011;914;48.118;11.600;2022-10-04T15:27:37;1.60;;;1.50;;
1829;SDS011;914;48.118;11.600;2022-10-04T15:32:34;3.30;;;1.50;;
1829;SDS011;914;48.118;11.600;2022-10-04T15:37:55;2.23;;;1.50;;
1829;SDS011;914;48.118;11.600;2022-10-04T15:40:27;2.90;;;1.80;;
1829;SDS011;914;48.118;11.600;2022-10-04T15:42:57;2.17;;;1.70;;
1829;SDS011;914;48.118;11.600;2022-10-04T15:57:40;3.17;;;1.83;;
1829;SDS011;914;48.118;11.600;2022-10-04T16:00:47;3.37;;;2.20;;
1829;SDS011;914;48.118;11.600;2022-10-04T16:06:22;2.90;;;1.60;;
1829;SDS011;914;48.118;11.600;2022-10-04T16:09:01;3.33;;;1.73;;
1829;SDS011;914;48.118;11.600;2022-10-04T16:23:34;2.30;;;1.90;;
1829;SDS011;914;48.118;11.600;2022-10-04T16:26:02;2.63;;;1.80;;
1829;SDS011;914;48.118;11.600;2022-10-04T16:31:25;3.27;;;1.90;;
1829;SDS011;914;48.118;11.600;2022-10-04T16:36:55;2.77;;;2.13;;
1829;SDS011;914;48.118;11.600;2022-10-04T16:39:36;2.70;;;2.37;;
1829;SDS011;914;48.118;11.600;2022-10-04T16:42:30;2.87;;;1.90;;
1829;SDS011;914;48.118;11.600;2022-10-04T16:56:30;4.37;;;2.43;;
1829;SDS011;914;48.118;11.600;2022-10-04T17:05:05;4.90;;;2.90;;
1829;SDS011;914;48.118;11.600;2022-10-04T17:13:55;17.23;;;7.43;;
1829;SDS011;914;48.118;11.600;2022-10-04T17:21:53;5.37;;;3.77;;
1829;SDS011;914;48.118;11.600;2022-10-04T17:27:17;6.27;;;3.67;;
1829;SDS011;914;48.118;11.600;2022-10-04T17:30:17;4.70;;;3.40;;
1829;SDS011;914;48.118;11.600;2022-10-04T17:38:22;5.63;;;3.47;;
1829;SDS011;914;48.118;11.600;2022-10-04T17:41:20;4.40;;;3.70;;
1829;SDS011;914;48.118;11.600;2022-10-04T17:44:22;5.17;;;3.50;;
1829;SDS011;914;48.118;11.600;2022-10-04T17:47:05;5.47;;;3.50;;
1829;SDS011;914;48.118;11.600;2022-10-04T17:49:46;6.67;;;3.43;;
1829;SDS011;914;48.118;11.600;2022-10-04T17:52:46;5.40;;;3.90;;
1829;SDS011;914;48.118;11.600;2022-10-04T18:01:27;6.40;;;4.03;;
1829;SDS011;914;48.118;11.600;2022-10-04T18:09:27;7.37;;;4.33;;
1829;SDS011;914;48.118;11.600;2022-10-04T18:11:54;5.90;;;5.00;;
1829;SDS011;914;48.118;11.600;2022-10-04T18:16:55;6.60;;;4.60;;
1829;SDS011;914;48.118;11.600;2022-10-04T18:22:01;6.60;;;4.60;;
1829;SDS011;914;48.118;11.600;2022-10-04T18:24:34;6.53;;;4.43;;
1829;SDS011;914;48.118;11.600;2022-10-04T18:27:06;6.17;;;4.17;;
1829;SDS011;914;48.118;11.600;2022-10-04T18:32:52;8.90;;;4.80;;
1829;SDS011;914;48.118;11.600;2022-10-04T18:40:32;7.77;;;4.90;;
1829;SDS011;914;48.118;11.600;2022-10-04T18:43:07;6.90;;;5.00;;
1829;SDS011;914;48.118;11.600;2022-10-04T18:45:59;9.63;;;4.80;;
1829;SDS011;914;48.118;11.600;2022-10-04T18:48:36;5.70;;;5.10;;
1829;SDS011;914;48.118;11.600;2022-10-04T18:51:23;6.57;;;5.27;;
1829;SDS011;914;48.118;11.600;2022-10-04T18:56:56;7.83;;;5.90;;
1829;SDS011;914;48.118;11.600;2022-10-04T18:59:49;5.67;;;5.17;;
1829;SDS011;914;48.118;11.600;2022-10-04T19:05:30;7.43;;;6.00;;
1829;SDS011;914;48.118;11.600;2022-10-04T19:11:38;8.17;;;6.70;;
1829;SDS011;914;48.118;11.600;2022-10-04T19:14:22;7.90;;;6.47;;
1829;SDS011;914;48.118;11.600;2022-10-04T19:17:17;9.17;;;6.77;;
1829;SDS011;914;48.118;11.600;2022-10-04T19:19:59;8.97;;;5.90;;
1829;SDS011;914;48.118;11.600;2022-10-04T19:22:41;9.37;;;5.73;;
1829;SDS011;914;48.118;11.600;2022-10-04T19:25:36;8.27;;;6.40;;
1829;SDS011;914;48.118;11.600;2022-10-04T19:31:46;9.67;;;6.43;;
1829;SDS011;914;48.118;11.600;2022-10-04T19:33:49;6.40;;;5.63;;
1829;SDS011;914;48.118;11.600;2022-10-04T19:36:26;7.77;;;5.93;;
1829;SDS011;914;48.118;11.600;2022-10-04T19:42:02;11.93;;;6.13;;
1829;SDS011;914;48.118;11.600;2022-10-04T19:58:05;8.17;;;5.67;;
1829;SDS011;914;48.118;11.600;2022-10-04T20:00:54;9.17;;;6.40;;
1829;SDS011;914;48.118;11.600;2022-10-04T20:03:20;7.67;;;5.70;;
1829;SDS011;914;48.118;11.600;2022-10-04T20:05:47;8.50;;;5.60;;
1829;SDS011;914;48.118;11.600;2022-10-04T20:21:45;8.80;;;5.83;;
1829;SDS011;914;48.118;11.600;2022-10-04T20:24:15;9.90;;;5.97;;
1829;SDS011;914;48.118;11.600;2022-10-04T20:27:02;7.57;;;5.40;;
1829;SDS011;914;48.118;11.600;2022-10-04T20:32:05;7.20;;;5.67;;
1829;SDS011;914;48.118;11.600;2022-10-04T20:37:06;6.43;;;5.53;;
1829;SDS011;914;48.118;11.600;2022-10-04T20:42:07;9.63;;;5.73;;
1829;SDS011;914;48.118;11.600;2022-10-04T20:44:53;7.33;;;5.90;;
1829;SDS011;914;48.118;11.600;2022-10-04T20:50:04;7.20;;;6.00;;
1829;SDS011;914;48.118;11.600;2022-10-04T20:52:46;9.20;;;5.53;;
1829;SDS011;914;48.118;11.600;2022-10-04T20:55:33;6.40;;;5.30;;
1829;SDS011;914;48.118;11.600;2022-10-04T20:58:16;13.00;;;10.13;;
1829;SDS011;914;48.118;11.600;2022-10-04T21:00:56;9.83;;;6.97;;
1829;SDS011;914;48.118;11.600;2022-10-04T21:03:24;15.27;;;10.20;;
1829;SDS011;914;48.118;11.600;2022-10-04T21:06:06;15.40;;;10.93;;
1829;SDS011;914;48.118;11.600;2022-10-04T21:08:33;9.70;;;6.83;;
1829;SDS011;914;48.118;11.600;2022-10-04T21:11:10;9.53;;;6.40;;
1829;SDS011;914;48.118;11.600;2022-10-04T21:13:40;10.83;;;6.20;;
1829;SDS011;914;48.118;11.600;2022-10-04T21:16:34;6.20;;;5.60;;
1829;SDS011;914;48.118;11.600;2022-10-04T21:22:09;7.67;;;6.17;;
1829;SDS011;914;48.118;11.600;2022-10-04T21:24:42;8.93;;;5.90;;
1829;SDS011;914;48.118;11.600;2022-10-04T21:30:00;10.27;;;6.03;;
1829;SDS011;914;48.118;11.600;2022-10-04T21:32:31;6.50;;;5.80;;
1829;SDS011;914;48.118;11.600;2022-10-04T21:34:58;8.97;;;6.20;;
1829;SDS011;914;48.118;11.600;2022-10-04T21:37:24;8.20;;;6.03;;
1829;SDS011;914;48.118;11.600;2022-10-04T21:39:50;9.43;;;6.23;;
1829;SDS011;914;48.118;11.600;2022-10-04T21:42:15;6.10;;;5.50;;
1829;SDS011;914;48.118;11.600;2022-10-04T21:44:42;7.77;;;6.43;;
1829;SDS011;914;48.118;11.600;2022-10-04T21:47:08;8.20;;;5.97;;
1829;SDS011;914;48.118;11.600;2022-10-04T21:49:34;9.60;;;5.57;;
1829;SDS011;914;48.118;11.600;2022-10-04T21:51:59;6.43;;;5.47;;
1829;SDS011;914;48.118;11.600;2022-10-04T21:54:25;9.27;;;5.70;;
1829;SDS011;914;48.118;11.600;2022-10-04T21:56:51;10.13;;;6.00;;
1829;SDS011;914;48.118;11.600;2022-10-04T21:59:18;6.47;;;5.53;;
1829;SDS011;914;48.118;11.600;2022-10-04T22:01:44;8.10;;;5.70;;
1829;SDS011;914;48.118;11.600;2022-10-04T22:04:10;6.27;;;5.43;;
1829;SDS011;914;48.118;11.600;2022-10-04T22:06:36;6.73;;;5.80;;
1829;SDS011;914;48.118;11.600;2022-10-04T22:09:02;7.50;;;5.60;;
1829;SDS011;914;48.118;11.600;2022-10-04T22:11:28;9.77;;;6.50;;
1829;SDS011;914;48.118;11.600;2022-10-04T22:13:54;7.03;;;6.17;;
1829;SDS011;914;48.118;11.600;2022-10-04T22:16:19;9.40;;;6.47;;
1829;SDS011;914;48.118;11.600;2022-10-04T22:18:45;9.13;;;6.07;;
1829;SDS011;914;48.118;11.600;2022-10-04T22:21:11;11.63;;;5.93;;
1829;SDS011;914;48.118;11.600;2022-10-04T22:23:38;7.43;;;5.60;;
1829;SDS011;914;48.118;11.600;2022-10-04T22:26:16;6.30;;;5.80;;
1829;SDS011;914;48.118;11.600;2022-10-04T22:28:45;6.90;;;6.20;;
1829;SDS011;914;48.118;11.600;2022-10-04T22:31:13;8.97;;;5.33;;
1829;SDS011;914;48.118;11.600;2022-10-04T22:33:44;7.70;;;5.87;;
1829;SDS011;914;48.118;11.600;2022-10-04T22:38:40;6.20;;;5.60;;
1829;SDS011;914;48.118;11.600;2022-10-04T22:41:11;9.33;;;6.67;;
1829;SDS011;914;48.118;11.600;2022-10-04T22:43:38;6.60;;;6.00;;
1829;SDS011;914;48.118;11.600;2022-10-04T22:46:04;7.33;;;6.03;;
1829;SDS011;914;48.118;11.600;2022-10-04T22:48:35;10.70;;;6.20;;
1829;SDS011;914;48.118;11.600;2022-10-04T22:51:01;6.57;;;5.77;;
1829;SDS011;914;48.118;11.600;2022-10-04T22:53:26;6.93;;;5.33;;
1829;SDS011;914;48.118;11.600;2022-10-04T22:55:52;6.63;;;6.00;;
1829;SDS011;914;48.118;11.600;2022-10-04T22:58:20;8.13;;;5.87;;
1829;SDS011;914;48.118;11.600;2022-10-04T23:00:46;9.87;;;6.13;;
1829;SDS011;914;48.118;11.600;2022-10-04T23:03:31;7.60;;;6.00;;
1829;SDS011;914;48.118;11.600;2022-10-04T23:05:58;7.37;;;5.87;;
1829;SDS011;914;48.118;11.600;2022-10-04T23:08:25;6.63;;;5.93;;
1829;SDS011;914;48.118;11.600;2022-10-04T23:10:52;8.40;;;5.70;;
1829;SDS011;914;48.118;11.600;2022-10-04T23:13:23;6.67;;;5.77;;
1829;SDS011;914;48.118;11.600;2022-10-04T23:15:49;5.90;;;5.07;;
1829;SDS011;914;48.118;11.600;2022-10-04T23:18:15;6.87;;;5.60;;
1829;SDS011;914;48.118;11.600;2022-10-04T23:20:42;8.10;;;6.07;;
1829;SDS011;914;48.118;11.600;2022-10-04T23:23:12;8.20;;;5.83;;
1829;SDS011;914;48.118;11.600;2022-10-04T23:25:45;8.10;;;6.00;;
1829;SDS011;914;48.118;11.600;2022-10-04T23:28:13;6.23;;;5.60;;
1829;SDS011;914;48.118;11.600;2022-10-04T23:30:40;8.57;;;5.87;;
1829;SDS011;914;48.118;11.600;2022-10-04T23:33:15;7.33;;;6.13;;
1829;SDS011;914;48.118;11.600;2022-10-04T23:35:43;9.00;;;5.50;;
1829;SDS011;914;48.118;11.600;2022-10-04T23:38:12;6.90;;;6.03;;
1829;SDS011;914;48.118;11.600;2022-10-04T23:40:40;6.40;;;5.20;;
1829;SDS011;914;48.118;11.600;2022-10-04T23:43:12;6.10;;;5.30;;
1829;SDS011;914;48.118;11.600;2022-10-04T23:45:41;6.20;;;5.50;;
1829;SDS011;914;48.118;11.600;2022-10-04T23:48:08;6.20;;;5.60;;
1829;SDS011;914;48.118;11.600;2022-10-04T23:50:41;6.23;;;5.63;;
1829;SDS011;914;48.118;11.600;2022-10-04T23:53:11;8.63;;;5.63;;
1829;SDS011;914;48.118;11.600;2022-10-04T23:55:50;7.10;;;5.43;;
1829;SDS011;914;48.118;11.600;2022-10-04T23:58:25;6.17;;;5.53;;
